sensor_id;sensor_type;location;lat;lon;timestamp;P1;durP1;ratioP1;P2;durP2;ratioP2
75427;SDS011;64008;55.612;37.698;2023-01-19T00:00:10;15.75;;;7.03;;
75427;SDS011;64008;55.612;37.698;2023-01-19T00:02:37;14.20;;;6.25;;
75427;SDS011;64008;55.612;37.698;2023-01-19T00:05:03;16.58;;;6.65;;
75427;SDS011;64008;55.612;37.698;2023-01-19T00:07:29;14.05;;;6.43;;
75427;SDS011;64008;55.612;37.698;2023-01-19T00:09:55;11.57;;;5.57;;
75427;SDS011;64008;55.612;37.698;2023-01-19T00:12:21;13.23;;;6.45;;
75427;SDS011;64008;55.612;37.698;2023-01-19T00:14:47;13.77;;;6.30;;
75427;SDS011;64008;55.612;37.698;2023-01-19T00:17:12;16.48;;;6.90;;
75427;SDS011;64008;55.612;37.698;2023-01-19T00:19:38;13.35;;;5.38;;
75427;SDS011;64008;55.612;37.698;2023-01-19T00:22:03;11.00;;;5.05;;
75427;SDS011;64008;55.612;37.698;2023-01-19T00:24:30;11.85;;;5.82;;
75427;SDS011;64008;55.612;37.698;2023-01-19T00:26:56;16.23;;;6.05;;
75427;SDS011;64008;55.612;37.698;2023-01-19T00:29:22;13.38;;;5.82;;
75427;SDS011;64008;55.612;37.698;2023-01-19T00:31:48;15.38;;;5.95;;
75427;SDS011;64008;55.612;37.698;2023-01-19T00:34:14;12.07;;;5.45;;
75427;SDS011;64008;55.612;37.698;2023-01-19T00:36:40;15.02;;;5.55;;
75427;SDS011;64008;55.612;37.698;2023-01-19T00:39:06;13.77;;;6.00;;
75427;SDS011;64008;55.612;37.698;2023-01-19T00:41:32;12.18;;;5.28;;
75427;SDS011;64008;55.612;37.698;2023-01-19T00:44:16;12.10;;;5.25;;
75427;SDS011;64008;55.612;37.698;2023-01-19T00:46:42;13.10;;;5.57;;
75427;SDS011;64008;55.612;37.698;2023-01-19T00:49:07;11.90;;;5.50;;
75427;SDS011;64008;55.612;37.698;2023-01-19T00:51:33;11.45;;;5.43;;
75427;SDS011;64008;55.612;37.698;2023-01-19T00:53:58;13.57;;;5.60;;
75427;SDS011;64008;55.612;37.698;2023-01-19T00:56:29;14.07;;;5.65;;
75427;SDS011;64008;55.612;37.698;2023-01-19T00:58:57;12.60;;;5.45;;
75427;SDS011;64008;55.612;37.698;2023-01-19T01:01:23;12.23;;;5.57;;
75427;SDS011;64008;55.612;37.698;2023-01-19T01:03:48;12.38;;;5.88;;
75427;SDS011;64008;55.612;37.698;2023-01-19T01:06:14;12.20;;;5.82;;
75427;SDS011;64008;55.612;37.698;2023-01-19T01:08:39;15.40;;;5.47;;
75427;SDS011;64008;55.612;37.698;2023-01-19T01:11:05;12.25;;;5.15;;
75427;SDS011;64008;55.612;37.698;2023-01-19T01:13:30;15.02;;;6.22;;
75427;SDS011;64008;55.612;37.698;2023-01-19T01:15:56;13.02;;;5.50;;
75427;SDS011;64008;55.612;37.698;2023-01-19T01:18:22;11.35;;;5.28;;
75427;SDS011;64008;55.612;37.698;2023-01-19T01:20:48;14.77;;;5.25;;
75427;SDS011;64008;55.612;37.698;2023-01-19T01:23:13;11.73;;;5.78;;
75427;SDS011;64008;55.612;37.698;2023-01-19T01:25:39;14.02;;;5.80;;
75427;SDS011;64008;55.612;37.698;2023-01-19T01:30:35;11.02;;;5.03;;
75427;SDS011;64008;55.612;37.698;2023-01-19T01:33:05;13.00;;;5.40;;
75427;SDS011;64008;55.612;37.698;2023-01-19T01:35:35;13.20;;;5.80;;
75427;SDS011;64008;55.612;37.698;2023-01-19T01:38:01;11.85;;;5.28;;
75427;SDS011;64008;55.612;37.698;2023-01-19T01:40:27;12.95;;;4.88;;
75427;SDS011;64008;55.612;37.698;2023-01-19T01:42:53;13.18;;;6.10;;
75427;SDS011;64008;55.612;37.698;2023-01-19T01:51:01;12.18;;;5.57;;
75427;SDS011;64008;55.612;37.698;2023-01-19T01:54:12;12.65;;;5.32;;
75427;SDS011;64008;55.612;37.698;2023-01-19T01:56:47;14.38;;;5.82;;
75427;SDS011;64008;55.612;37.698;2023-01-19T01:59:17;12.40;;;5.88;;
75427;SDS011;64008;55.612;37.698;2023-01-19T02:01:55;12.68;;;5.50;;
75427;SDS011;64008;55.612;37.698;2023-01-19T02:04:46;12.90;;;5.95;;
75427;SDS011;64008;55.612;37.698;2023-01-19T02:10:29;12.40;;;5.88;;
75427;SDS011;64008;55.612;37.698;2023-01-19T02:13:14;14.05;;;6.05;;
75427;SDS011;64008;55.612;37.698;2023-01-19T02:15:45;13.27;;;5.28;;
75427;SDS011;64008;55.612;37.698;2023-01-19T02:18:19;12.07;;;5.18;;
75427;SDS011;64008;55.612;37.698;2023-01-19T02:20:52;11.27;;;5.20;;
75427;SDS011;64008;55.612;37.698;2023-01-19T02:23:46;14.18;;;5.80;;
75427;SDS011;64008;55.612;37.698;2023-01-19T02:26:18;11.68;;;5.10;;
75427;SDS011;64008;55.612;37.698;2023-01-19T02:28:50;12.27;;;5.82;;
75427;SDS011;64008;55.612;37.698;2023-01-19T02:31:21;11.10;;;5.47;;
75427;SDS011;64008;55.612;37.698;2023-01-19T02:33:47;12.70;;;6.00;;
75427;SDS011;64008;55.612;37.698;2023-01-19T02:36:14;12.98;;;5.47;;
75427;SDS011;64008;55.612;37.698;2023-01-19T02:38:43;11.90;;;5.32;;
75427;SDS011;64008;55.612;37.698;2023-01-19T02:41:12;14.05;;;5.95;;
75427;SDS011;64008;55.612;37.698;2023-01-19T02:43:42;10.10;;;5.13;;
75427;SDS011;64008;55.612;37.698;2023-01-19T02:46:08;12.15;;;5.82;;
75427;SDS011;64008;55.612;37.698;2023-01-19T02:48:34;12.88;;;5.50;;
75427;SDS011;64008;55.612;37.698;2023-01-19T02:51:00;10.88;;;5.35;;
75427;SDS011;64008;55.612;37.698;2023-01-19T03:05:05;12.40;;;5.10;;
75427;SDS011;64008;55.612;37.698;2023-01-19T03:07:58;11.93;;;5.30;;
75427;SDS011;64008;55.612;37.698;2023-01-19T03:15:56;12.82;;;5.25;;
75427;SDS011;64008;55.612;37.698;2023-01-19T03:18:30;12.00;;;5.00;;
75427;SDS011;64008;55.612;37.698;2023-01-19T03:20:59;11.68;;;5.72;;
75427;SDS011;64008;55.612;37.698;2023-01-19T03:23:29;12.48;;;5.25;;
75427;SDS011;64008;55.612;37.698;2023-01-19T03:25:58;11.80;;;5.72;;
75427;SDS011;64008;55.612;37.698;2023-01-19T03:28:25;12.25;;;5.18;;
75427;SDS011;64008;55.612;37.698;2023-01-19T03:31:00;13.18;;;5.55;;
75427;SDS011;64008;55.612;37.698;2023-01-19T03:33:31;11.63;;;5.63;;
75427;SDS011;64008;55.612;37.698;2023-01-19T03:36:01;10.73;;;4.80;;
75427;SDS011;64008;55.612;37.698;2023-01-19T03:38:33;14.40;;;5.57;;
75427;SDS011;64008;55.612;37.698;2023-01-19T03:41:03;14.10;;;5.75;;
75427;SDS011;64008;55.612;37.698;2023-01-19T03:43:32;10.80;;;5.40;;
75427;SDS011;64008;55.612;37.698;2023-01-19T03:46:01;12.85;;;5.75;;
75427;SDS011;64008;55.612;37.698;2023-01-19T03:48:29;12.95;;;5.28;;
75427;SDS011;64008;55.612;37.698;2023-01-19T03:50:55;14.70;;;6.00;;
75427;SDS011;64008;55.612;37.698;2023-01-19T03:53:21;13.63;;;5.25;;
75427;SDS011;64008;55.612;37.698;2023-01-19T03:55:50;12.40;;;5.15;;
75427;SDS011;64008;55.612;37.698;2023-01-19T03:58:17;11.55;;;5.03;;
75427;SDS011;64008;55.612;37.698;2023-01-19T04:00:43;10.10;;;4.55;;
75427;SDS011;64008;55.612;37.698;2023-01-19T04:03:15;10.30;;;4.75;;
75427;SDS011;64008;55.612;37.698;2023-01-19T04:05:44;12.35;;;4.80;;
75427;SDS011;64008;55.612;37.698;2023-01-19T04:08:10;11.93;;;4.57;;
75427;SDS011;64008;55.612;37.698;2023-01-19T04:10:36;10.50;;;4.35;;
75427;SDS011;64008;55.612;37.698;2023-01-19T04:13:02;12.07;;;4.82;;
75427;SDS011;64008;55.612;37.698;2023-01-19T04:15:28;10.90;;;5.05;;
75427;SDS011;64008;55.612;37.698;2023-01-19T04:17:58;11.98;;;4.65;;
75427;SDS011;64008;55.612;37.698;2023-01-19T04:20:25;14.20;;;4.97;;
75427;SDS011;64008;55.612;37.698;2023-01-19T04:22:52;12.07;;;4.88;;
75427;SDS011;64008;55.612;37.698;2023-01-19T04:27:44;11.60;;;4.70;;
75427;SDS011;64008;55.612;37.698;2023-01-19T04:30:10;9.48;;;4.22;;
75427;SDS011;64008;55.612;37.698;2023-01-19T04:32:35;12.00;;;5.00;;
75427;SDS011;64008;55.612;37.698;2023-01-19T04:35:01;9.95;;;4.75;;
75427;SDS011;64008;55.612;37.698;2023-01-19T04:37:27;9.93;;;4.97;;
75427;SDS011;64008;55.612;37.698;2023-01-19T04:39:52;12.65;;;5.03;;
75427;SDS011;64008;55.612;37.698;2023-01-19T04:42:18;10.25;;;4.70;;
75427;SDS011;64008;55.612;37.698;2023-01-19T04:44:44;11.73;;;4.88;;
75427;SDS011;64008;55.612;37.698;2023-01-19T04:47:09;10.15;;;4.90;;
75427;SDS011;64008;55.612;37.698;2023-01-19T04:49:35;10.57;;;4.25;;
75427;SDS011;64008;55.612;37.698;2023-01-19T04:52:04;11.20;;;4.68;;
75427;SDS011;64008;55.612;37.698;2023-01-19T04:54:30;8.82;;;4.00;;
75427;SDS011;64008;55.612;37.698;2023-01-19T04:56:56;13.98;;;4.82;;
75427;SDS011;64008;55.612;37.698;2023-01-19T04:59:22;12.57;;;4.72;;
75427;SDS011;64008;55.612;37.698;2023-01-19T05:01:48;14.57;;;6.10;;
75427;SDS011;64008;55.612;37.698;2023-01-19T05:04:13;11.00;;;4.68;;
75427;SDS011;64008;55.612;37.698;2023-01-19T05:06:39;10.10;;;4.38;;
75427;SDS011;64008;55.612;37.698;2023-01-19T05:09:04;9.77;;;4.15;;
75427;SDS011;64008;55.612;37.698;2023-01-19T05:11:33;10.88;;;4.63;;
75427;SDS011;64008;55.612;37.698;2023-01-19T05:13:59;10.68;;;4.22;;
75427;SDS011;64008;55.612;37.698;2023-01-19T05:16:24;11.60;;;4.25;;
75427;SDS011;64008;55.612;37.698;2023-01-19T05:18:50;12.10;;;5.05;;
75427;SDS011;64008;55.612;37.698;2023-01-19T05:21:16;16.23;;;6.10;;
75427;SDS011;64008;55.612;37.698;2023-01-19T05:23:42;12.20;;;5.47;;
75427;SDS011;64008;55.612;37.698;2023-01-19T05:26:08;10.65;;;4.93;;
75427;SDS011;64008;55.612;37.698;2023-01-19T05:28:33;13.85;;;4.90;;
75427;SDS011;64008;55.612;37.698;2023-01-19T05:30:59;15.27;;;5.32;;
75427;SDS011;64008;55.612;37.698;2023-01-19T05:33:25;12.68;;;4.85;;
75427;SDS011;64008;55.612;37.698;2023-01-19T05:35:51;11.95;;;5.22;;
75427;SDS011;64008;55.612;37.698;2023-01-19T05:38:20;10.88;;;4.82;;
75427;SDS011;64008;55.612;37.698;2023-01-19T05:40:46;11.02;;;4.85;;
75427;SDS011;64008;55.612;37.698;2023-01-19T05:43:12;9.45;;;4.97;;
75427;SDS011;64008;55.612;37.698;2023-01-19T05:45:38;10.45;;;4.40;;
75427;SDS011;64008;55.612;37.698;2023-01-19T05:48:05;8.80;;;3.95;;
75427;SDS011;64008;55.612;37.698;2023-01-19T05:50:31;9.05;;;4.03;;
75427;SDS011;64008;55.612;37.698;2023-01-19T05:53:00;9.82;;;4.32;;
75427;SDS011;64008;55.612;37.698;2023-01-19T05:55:26;8.60;;;4.05;;
75427;SDS011;64008;55.612;37.698;2023-01-19T05:57:52;9.43;;;4.55;;
75427;SDS011;64008;55.612;37.698;2023-01-19T06:00:18;8.90;;;4.50;;
75427;SDS011;64008;55.612;37.698;2023-01-19T06:02:44;9.23;;;4.25;;
75427;SDS011;64008;55.612;37.698;2023-01-19T06:05:11;10.88;;;4.72;;
75427;SDS011;64008;55.612;37.698;2023-01-19T06:07:37;9.98;;;4.35;;
75427;SDS011;64008;55.612;37.698;2023-01-19T06:10:03;12.85;;;4.60;;
75427;SDS011;64008;55.612;37.698;2023-01-19T06:12:29;9.15;;;3.80;;
75427;SDS011;64008;55.612;37.698;2023-01-19T06:14:54;9.85;;;4.30;;
75427;SDS011;64008;55.612;37.698;2023-01-19T06:17:22;9.30;;;4.32;;
75427;SDS011;64008;55.612;37.698;2023-01-19T06:19:47;10.05;;;4.57;;
75427;SDS011;64008;55.612;37.698;2023-01-19T06:22:19;9.95;;;4.07;;
75427;SDS011;64008;55.612;37.698;2023-01-19T06:24:44;9.32;;;4.22;;
75427;SDS011;64008;55.612;37.698;2023-01-19T06:27:10;11.80;;;4.13;;
75427;SDS011;64008;55.612;37.698;2023-01-19T06:29:35;11.32;;;4.72;;
75427;SDS011;64008;55.612;37.698;2023-01-19T06:32:01;9.93;;;4.68;;
75427;SDS011;64008;55.612;37.698;2023-01-19T06:34:26;10.70;;;4.97;;
75427;SDS011;64008;55.612;37.698;2023-01-19T06:36:54;10.13;;;4.10;;
75427;SDS011;64008;55.612;37.698;2023-01-19T06:39:23;8.93;;;4.30;;
75427;SDS011;64008;55.612;37.698;2023-01-19T06:41:48;10.32;;;4.43;;
75427;SDS011;64008;55.612;37.698;2023-01-19T06:44:14;10.80;;;4.68;;
75427;SDS011;64008;55.612;37.698;2023-01-19T06:46:40;9.25;;;4.00;;
75427;SDS011;64008;55.612;37.698;2023-01-19T06:49:05;12.05;;;5.07;;
75427;SDS011;64008;55.612;37.698;2023-01-19T06:51:32;9.32;;;4.13;;
75427;SDS011;64008;55.612;37.698;2023-01-19T06:53:58;11.43;;;4.95;;
75427;SDS011;64008;55.612;37.698;2023-01-19T06:56:23;9.77;;;4.32;;
75427;SDS011;64008;55.612;37.698;2023-01-19T06:58:51;13.15;;;5.20;;
75427;SDS011;64008;55.612;37.698;2023-01-19T07:01:20;13.40;;;5.53;;
75427;SDS011;64008;55.612;37.698;2023-01-19T07:03:45;13.27;;;4.88;;
75427;SDS011;64008;55.612;37.698;2023-01-19T07:06:11;11.35;;;4.60;;
75427;SDS011;64008;55.612;37.698;2023-01-19T07:08:36;13.05;;;4.90;;
75427;SDS011;64008;55.612;37.698;2023-01-19T07:11:03;11.05;;;4.57;;
75427;SDS011;64008;55.612;37.698;2023-01-19T07:13:34;13.07;;;4.50;;
75427;SDS011;64008;55.612;37.698;2023-01-19T07:16:05;11.68;;;3.58;;
75427;SDS011;64008;55.612;37.698;2023-01-19T07:18:31;12.52;;;4.97;;
75427;SDS011;64008;55.612;37.698;2023-01-19T07:21:04;8.02;;;4.03;;
75427;SDS011;64008;55.612;37.698;2023-01-19T07:23:30;9.32;;;4.03;;
75427;SDS011;64008;55.612;37.698;2023-01-19T07:25:56;10.80;;;4.18;;
75427;SDS011;64008;55.612;37.698;2023-01-19T07:30:51;10.07;;;3.78;;
75427;SDS011;64008;55.612;37.698;2023-01-19T07:33:18;13.88;;;4.82;;
75427;SDS011;64008;55.612;37.698;2023-01-19T07:35:46;11.73;;;5.05;;
75427;SDS011;64008;55.612;37.698;2023-01-19T07:38:13;9.85;;;4.82;;
75427;SDS011;64008;55.612;37.698;2023-01-19T07:40:38;11.88;;;4.45;;
75427;SDS011;64008;55.612;37.698;2023-01-19T07:43:04;10.63;;;4.05;;
75427;SDS011;64008;55.612;37.698;2023-01-19T07:45:29;9.45;;;4.00;;
75427;SDS011;64008;55.612;37.698;2023-01-19T07:47:55;10.25;;;4.50;;
75427;SDS011;64008;55.612;37.698;2023-01-19T07:50:21;11.63;;;4.60;;
75427;SDS011;64008;55.612;37.698;2023-01-19T07:52:51;10.27;;;4.68;;
75427;SDS011;64008;55.612;37.698;2023-01-19T07:55:18;9.45;;;4.65;;
75427;SDS011;64008;55.612;37.698;2023-01-19T07:57:47;11.68;;;4.78;;
75427;SDS011;64008;55.612;37.698;2023-01-19T08:00:18;10.35;;;4.25;;
75427;SDS011;64008;55.612;37.698;2023-01-19T08:02:49;10.07;;;4.53;;
75427;SDS011;64008;55.612;37.698;2023-01-19T08:05:16;10.45;;;4.65;;
75427;SDS011;64008;55.612;37.698;2023-01-19T08:07:43;10.20;;;4.13;;
75427;SDS011;64008;55.612;37.698;2023-01-19T08:10:10;10.07;;;4.47;;
75427;SDS011;64008;55.612;37.698;2023-01-19T08:12:37;10.07;;;4.70;;
75427;SDS011;64008;55.612;37.698;2023-01-19T08:15:03;9.10;;;4.43;;
75427;SDS011;64008;55.612;37.698;2023-01-19T08:17:29;11.57;;;4.53;;
75427;SDS011;64008;55.612;37.698;2023-01-19T08:19:54;12.00;;;4.10;;
75427;SDS011;64008;55.612;37.698;2023-01-19T08:22:21;7.40;;;3.30;;
75427;SDS011;64008;55.612;37.698;2023-01-19T08:24:46;12.27;;;4.88;;
75427;SDS011;64008;55.612;37.698;2023-01-19T08:27:12;11.27;;;5.85;;
75427;SDS011;64008;55.612;37.698;2023-01-19T08:29:37;8.90;;;4.07;;
75427;SDS011;64008;55.612;37.698;2023-01-19T08:32:03;11.55;;;5.57;;
75427;SDS011;64008;55.612;37.698;2023-01-19T08:34:30;10.38;;;5.63;;
75427;SDS011;64008;55.612;37.698;2023-01-19T08:36:59;11.13;;;4.93;;
75427;SDS011;64008;55.612;37.698;2023-01-19T08:39:25;12.32;;;6.03;;
75427;SDS011;64008;55.612;37.698;2023-01-19T08:41:51;12.52;;;5.47;;
75427;SDS011;64008;55.612;37.698;2023-01-19T08:44:17;12.10;;;4.88;;
75427;SDS011;64008;55.612;37.698;2023-01-19T08:46:42;12.93;;;4.97;;
75427;SDS011;64008;55.612;37.698;2023-01-19T08:49:08;11.20;;;5.05;;
75427;SDS011;64008;55.612;37.698;2023-01-19T08:51:34;12.73;;;6.28;;
75427;SDS011;64008;55.612;37.698;2023-01-19T08:54:02;8.88;;;4.28;;
75427;SDS011;64008;55.612;37.698;2023-01-19T08:56:28;10.23;;;4.85;;
75427;SDS011;64008;55.612;37.698;2023-01-19T08:58:53;12.45;;;4.63;;
75427;SDS011;64008;55.612;37.698;2023-01-19T09:01:19;11.73;;;5.03;;
75427;SDS011;64008;55.612;37.698;2023-01-19T09:03:46;12.15;;;5.47;;
75427;SDS011;64008;55.612;37.698;2023-01-19T09:06:12;10.85;;;4.80;;
75427;SDS011;64008;55.612;37.698;2023-01-19T09:08:41;15.50;;;5.45;;
75427;SDS011;64008;55.612;37.698;2023-01-19T09:11:10;10.68;;;5.35;;
75427;SDS011;64008;55.612;37.698;2023-01-19T09:13:37;12.27;;;5.15;;
75427;SDS011;64008;55.612;37.698;2023-01-19T09:16:03;11.70;;;5.25;;
75427;SDS011;64008;55.612;37.698;2023-01-19T09:18:32;11.27;;;5.60;;
75427;SDS011;64008;55.612;37.698;2023-01-19T09:23:23;11.18;;;4.45;;
75427;SDS011;64008;55.612;37.698;2023-01-19T09:25:58;10.50;;;4.70;;
75427;SDS011;64008;55.612;37.698;2023-01-19T09:28:25;15.00;;;6.13;;
75427;SDS011;64008;55.612;37.698;2023-01-19T09:30:51;16.40;;;5.93;;
75427;SDS011;64008;55.612;37.698;2023-01-19T09:33:17;10.85;;;5.40;;
75427;SDS011;64008;55.612;37.698;2023-01-19T09:35:44;14.88;;;5.65;;
75427;SDS011;64008;55.612;37.698;2023-01-19T09:38:11;14.32;;;5.07;;
75427;SDS011;64008;55.612;37.698;2023-01-19T09:40:43;11.68;;;5.28;;
75427;SDS011;64008;55.612;37.698;2023-01-19T09:43:15;12.73;;;6.03;;
75427;SDS011;64008;55.612;37.698;2023-01-19T09:45:56;14.52;;;6.60;;
75427;SDS011;64008;55.612;37.698;2023-01-19T09:50:59;13.77;;;6.40;;
75427;SDS011;64008;55.612;37.698;2023-01-19T09:56:38;17.35;;;6.78;;
75427;SDS011;64008;55.612;37.698;2023-01-19T10:07:41;13.10;;;5.78;;
75427;SDS011;64008;55.612;37.698;2023-01-19T10:10:27;13.50;;;6.28;;
75427;SDS011;64008;55.612;37.698;2023-01-19T10:15:49;15.48;;;7.65;;
75427;SDS011;64008;55.612;37.698;2023-01-19T10:18:44;15.80;;;6.60;;
75427;SDS011;64008;55.612;37.698;2023-01-19T10:26:53;15.93;;;7.20;;
75427;SDS011;64008;55.612;37.698;2023-01-19T10:34:54;13.55;;;5.55;;
75427;SDS011;64008;55.612;37.698;2023-01-19T10:42:33;14.27;;;5.82;;
75427;SDS011;64008;55.612;37.698;2023-01-19T10:45:00;16.52;;;6.82;;
75427;SDS011;64008;55.612;37.698;2023-01-19T10:47:30;14.98;;;6.30;;
75427;SDS011;64008;55.612;37.698;2023-01-19T10:49:58;15.85;;;7.10;;
75427;SDS011;64008;55.612;37.698;2023-01-19T10:52:31;13.70;;;6.25;;
75427;SDS011;64008;55.612;37.698;2023-01-19T10:54:59;17.95;;;7.10;;
75427;SDS011;64008;55.612;37.698;2023-01-19T10:57:31;14.50;;;6.68;;
75427;SDS011;64008;55.612;37.698;2023-01-19T11:00:01;13.40;;;6.13;;
75427;SDS011;64008;55.612;37.698;2023-01-19T11:02:28;17.02;;;7.28;;
75427;SDS011;64008;55.612;37.698;2023-01-19T11:04:55;16.98;;;7.65;;
75427;SDS011;64008;55.612;37.698;2023-01-19T11:07:27;15.60;;;6.18;;
75427;SDS011;64008;55.612;37.698;2023-01-19T11:15:27;14.75;;;5.90;;
75427;SDS011;64008;55.612;37.698;2023-01-19T11:17:53;14.45;;;6.63;;
75427;SDS011;64008;55.612;37.698;2023-01-19T11:20:23;17.98;;;8.25;;
75427;SDS011;64008;55.612;37.698;2023-01-19T11:25:40;13.57;;;6.47;;
75427;SDS011;64008;55.612;37.698;2023-01-19T11:28:16;21.40;;;9.48;;
75427;SDS011;64008;55.612;37.698;2023-01-19T11:31:02;16.35;;;7.20;;
75427;SDS011;64008;55.612;37.698;2023-01-19T11:36:23;13.93;;;6.32;;
75427;SDS011;64008;55.612;37.698;2023-01-19T11:38:51;18.42;;;7.43;;
75427;SDS011;64008;55.612;37.698;2023-01-19T11:41:42;18.50;;;7.63;;
75427;SDS011;64008;55.612;37.698;2023-01-19T11:44:25;14.50;;;6.45;;
75427;SDS011;64008;55.612;37.698;2023-01-19T11:46:58;14.95;;;6.38;;
75427;SDS011;64008;55.612;37.698;2023-01-19T11:58:04;18.15;;;7.50;;
75427;SDS011;64008;55.612;37.698;2023-01-19T12:05:32;19.15;;;8.00;;
75427;SDS011;64008;55.612;37.698;2023-01-19T12:07:59;18.77;;;8.23;;
75427;SDS011;64008;55.612;37.698;2023-01-19T12:10:30;19.83;;;8.80;;
75427;SDS011;64008;55.612;37.698;2023-01-19T12:13:00;18.02;;;7.70;;
75427;SDS011;64008;55.612;37.698;2023-01-19T12:15:42;17.08;;;8.07;;
75427;SDS011;64008;55.612;37.698;2023-01-19T12:18:20;19.30;;;8.65;;
75427;SDS011;64008;55.612;37.698;2023-01-19T12:20:49;19.83;;;7.28;;
75427;SDS011;64008;55.612;37.698;2023-01-19T12:28:52;16.88;;;7.05;;
75427;SDS011;64008;55.612;37.698;2023-01-19T12:31:21;16.00;;;7.10;;
75427;SDS011;64008;55.612;37.698;2023-01-19T12:33:49;19.33;;;8.55;;
75427;SDS011;64008;55.612;37.698;2023-01-19T12:43:41;18.73;;;8.32;;
75427;SDS011;64008;55.612;37.698;2023-01-19T12:46:24;16.63;;;7.75;;
75427;SDS011;64008;55.612;37.698;2023-01-19T12:48:53;19.20;;;8.45;;
75427;SDS011;64008;55.612;37.698;2023-01-19T12:51:23;18.88;;;8.38;;
75427;SDS011;64008;55.612;37.698;2023-01-19T12:53:54;18.33;;;8.18;;
75427;SDS011;64008;55.612;37.698;2023-01-19T12:56:28;17.10;;;8.13;;
75427;SDS011;64008;55.612;37.698;2023-01-19T12:58:56;16.85;;;7.07;;
75427;SDS011;64008;55.612;37.698;2023-01-19T13:01:22;19.33;;;7.88;;
75427;SDS011;64008;55.612;37.698;2023-01-19T13:09:28;22.70;;;8.65;;
75427;SDS011;64008;55.612;37.698;2023-01-19T13:14:39;18.60;;;8.07;;
75427;SDS011;64008;55.612;37.698;2023-01-19T13:17:39;23.55;;;10.18;;
75427;SDS011;64008;55.612;37.698;2023-01-19T13:23:16;29.67;;;11.10;;
75427;SDS011;64008;55.612;37.698;2023-01-19T13:26:02;17.98;;;8.00;;
75427;SDS011;64008;55.612;37.698;2023-01-19T13:28:31;21.42;;;10.20;;
75427;SDS011;64008;55.612;37.698;2023-01-19T13:31:07;25.27;;;11.43;;
75427;SDS011;64008;55.612;37.698;2023-01-19T13:33:36;25.00;;;10.48;;
75427;SDS011;64008;55.612;37.698;2023-01-19T13:36:13;34.17;;;14.27;;
75427;SDS011;64008;55.612;37.698;2023-01-19T13:42:01;25.02;;;11.57;;
75427;SDS011;64008;55.612;37.698;2023-01-19T13:44:51;17.42;;;7.90;;
75427;SDS011;64008;55.612;37.698;2023-01-19T13:47:21;25.77;;;11.68;;
75427;SDS011;64008;55.612;37.698;2023-01-19T13:50:01;17.90;;;8.88;;
75427;SDS011;64008;55.612;37.698;2023-01-19T13:52:27;20.17;;;10.50;;
75427;SDS011;64008;55.612;37.698;2023-01-19T13:54:54;21.98;;;11.40;;
75427;SDS011;64008;55.612;37.698;2023-01-19T13:57:28;18.98;;;9.20;;
75427;SDS011;64008;55.612;37.698;2023-01-19T14:00:15;18.63;;;9.30;;
75427;SDS011;64008;55.612;37.698;2023-01-19T14:05:31;25.13;;;10.20;;
75427;SDS011;64008;55.612;37.698;2023-01-19T14:08:05;24.45;;;10.73;;
75427;SDS011;64008;55.612;37.698;2023-01-19T14:10:38;16.02;;;8.07;;
75427;SDS011;64008;55.612;37.698;2023-01-19T14:13:17;18.88;;;8.77;;
75427;SDS011;64008;55.612;37.698;2023-01-19T14:15:44;20.80;;;8.52;;
75427;SDS011;64008;55.612;37.698;2023-01-19T14:24:04;18.27;;;7.80;;
75427;SDS011;64008;55.612;37.698;2023-01-19T14:29:12;20.63;;;7.97;;
75427;SDS011;64008;55.612;37.698;2023-01-19T14:31:44;18.38;;;7.45;;
75427;SDS011;64008;55.612;37.698;2023-01-19T14:37:01;16.80;;;7.32;;
75427;SDS011;64008;55.612;37.698;2023-01-19T14:39:30;15.15;;;7.13;;
75427;SDS011;64008;55.612;37.698;2023-01-19T14:42:00;16.45;;;6.93;;
75427;SDS011;64008;55.612;37.698;2023-01-19T14:44:38;13.32;;;6.90;;
75427;SDS011;64008;55.612;37.698;2023-01-19T14:47:04;11.40;;;5.50;;
75427;SDS011;64008;55.612;37.698;2023-01-19T14:52:06;15.02;;;7.13;;
75427;SDS011;64008;55.612;37.698;2023-01-19T14:54:44;15.30;;;6.95;;
75427;SDS011;64008;55.612;37.698;2023-01-19T14:57:13;14.52;;;6.50;;
75427;SDS011;64008;55.612;37.698;2023-01-19T14:59:39;15.43;;;6.93;;
75427;SDS011;64008;55.612;37.698;2023-01-19T15:02:10;15.63;;;7.18;;
75427;SDS011;64008;55.612;37.698;2023-01-19T15:04:36;13.63;;;7.38;;
75427;SDS011;64008;55.612;37.698;2023-01-19T15:07:02;15.35;;;7.70;;
75427;SDS011;64008;55.612;37.698;2023-01-19T15:09:30;15.27;;;7.13;;
75427;SDS011;64008;55.612;37.698;2023-01-19T15:11:56;19.02;;;8.80;;
75427;SDS011;64008;55.612;37.698;2023-01-19T15:14:22;19.02;;;9.50;;
75427;SDS011;64008;55.612;37.698;2023-01-19T15:16:48;19.30;;;9.90;;
75427;SDS011;64008;55.612;37.698;2023-01-19T15:19:15;19.10;;;9.70;;
75427;SDS011;64008;55.612;37.698;2023-01-19T15:21:41;14.45;;;8.63;;
75427;SDS011;64008;55.612;37.698;2023-01-19T15:24:09;17.45;;;9.23;;
75427;SDS011;64008;55.612;37.698;2023-01-19T15:26:36;14.50;;;7.93;;
75427;SDS011;64008;55.612;37.698;2023-01-19T15:29:11;16.35;;;7.93;;
75427;SDS011;64008;55.612;37.698;2023-01-19T15:31:47;19.30;;;9.77;;
75427;SDS011;64008;55.612;37.698;2023-01-19T15:34:13;17.45;;;8.35;;
75427;SDS011;64008;55.612;37.698;2023-01-19T15:36:38;21.10;;;10.02;;
75427;SDS011;64008;55.612;37.698;2023-01-19T15:39:04;15.50;;;8.18;;
75427;SDS011;64008;55.612;37.698;2023-01-19T15:41:30;15.45;;;8.18;;
75427;SDS011;64008;55.612;37.698;2023-01-19T15:43:56;14.95;;;7.28;;
75427;SDS011;64008;55.612;37.698;2023-01-19T15:46:22;18.23;;;8.48;;
75427;SDS011;64008;55.612;37.698;2023-01-19T15:48:48;16.20;;;9.23;;
75427;SDS011;64008;55.612;37.698;2023-01-19T15:51:22;15.73;;;8.13;;
75427;SDS011;64008;55.612;37.698;2023-01-19T15:53:50;16.83;;;8.32;;
75427;SDS011;64008;55.612;37.698;2023-01-19T15:56:17;17.35;;;9.35;;
75427;SDS011;64008;55.612;37.698;2023-01-19T15:58:45;20.70;;;9.95;;
75427;SDS011;64008;55.612;37.698;2023-01-19T16:01:14;21.95;;;11.50;;
75427;SDS011;64008;55.612;37.698;2023-01-19T16:03:41;23.98;;;12.73;;
75427;SDS011;64008;55.612;37.698;2023-01-19T16:06:07;15.98;;;8.88;;
75427;SDS011;64008;55.612;37.698;2023-01-19T16:08:33;17.05;;;8.18;;
75427;SDS011;64008;55.612;37.698;2023-01-19T16:11:06;21.92;;;10.63;;
75427;SDS011;64008;55.612;37.698;2023-01-19T16:13:33;17.13;;;8.15;;
75427;SDS011;64008;55.612;37.698;2023-01-19T16:16:05;15.48;;;8.18;;
75427;SDS011;64008;55.612;37.698;2023-01-19T16:18:32;18.58;;;9.63;;
75427;SDS011;64008;55.612;37.698;2023-01-19T16:20:59;16.88;;;8.50;;
75427;SDS011;64008;55.612;37.698;2023-01-19T16:23:27;15.43;;;7.53;;
75427;SDS011;64008;55.612;37.698;2023-01-19T16:25:56;16.08;;;8.13;;
75427;SDS011;64008;55.612;37.698;2023-01-19T16:28:44;12.65;;;6.10;;
75427;SDS011;64008;55.612;37.698;2023-01-19T16:31:09;15.00;;;7.22;;
75427;SDS011;64008;55.612;37.698;2023-01-19T16:33:35;13.57;;;7.45;;
75427;SDS011;64008;55.612;37.698;2023-01-19T16:36:15;14.13;;;6.65;;
75427;SDS011;64008;55.612;37.698;2023-01-19T16:38:46;13.55;;;6.65;;
75427;SDS011;64008;55.612;37.698;2023-01-19T16:41:12;14.57;;;6.78;;
75427;SDS011;64008;55.612;37.698;2023-01-19T16:43:38;13.43;;;7.03;;
75427;SDS011;64008;55.612;37.698;2023-01-19T16:46:03;17.48;;;7.50;;
75427;SDS011;64008;55.612;37.698;2023-01-19T16:48:29;14.18;;;6.75;;